sensor_id;sensor_type;location;lat;lon;timestamp;temperature;humidity
9802;DHT22;4940;50.900;4.672;2023-07-29T00:00:58;20.90;99.90
9802;DHT22;4940;50.900;4.672;2023-07-29T00:03:26;20.90;99.90
9802;DHT22;4940;50.900;4.672;2023-07-29T00:05:57;20.90;99.90
9802;DHT22;4940;50.900;4.672;2023-07-29T00:08:24;20.80;99.90
9802;DHT22;4940;50.900;4.672;2023-07-29T00:10:51;20.80;99.90
9802;DHT22;4940;50.900;4.672;2023-07-29T00:13:18;20.80;99.90
9802;DHT22;4940;50.900;4.672;2023-07-29T00:15:46;20.80;99.90
9802;DHT22;4940;50.900;4.672;2023-07-29T00:18:13;20.70;99.90
9802;DHT22;4940;50.900;4.672;2023-07-29T00:20:40;20.70;99.90
9802;DHT22;4940;50.900;4.672;2023-07-29T00:23:09;20.60;99.90
9802;DHT22;4940;50.900;4.672;2023-07-29T00:25:37;20.60;99.90
9802;DHT22;4940;50.900;4.672;2023-07-29T00:28:04;20.60;99.90
9802;DHT22;4940;50.900;4.672;2023-07-29T00:30:32;20.50;99.90
9802;DHT22;4940;50.900;4.672;2023-07-29T00:32:59;20.60;99.90
9802;DHT22;4940;50.900;4.672;2023-07-29T00:35:26;20.50;99.90
9802;DHT22;4940;50.900;4.672;2023-07-29T00:37:54;20.40;99.90
9802;DHT22;4940;50.900;4.672;2023-07-29T00:40:23;20.40;99.90
9802;DHT22;4940;50.900;4.672;2023-07-29T00:42:50;20.30;99.90
9802;DHT22;4940;50.900;4.672;2023-07-29T00:45:18;20.40;99.90
9802;DHT22;4940;50.900;4.672;2023-07-29T00:47:45;20.30;99.90
9802;DHT22;4940;50.900;4.672;2023-07-29T00:50:14;20.20;99.90
9802;DHT22;4940;50.900;4.672;2023-07-29T00:52:41;20.20;99.90
9802;DHT22;4940;50.900;4.672;2023-07-29T00:55:08;20.10;99.90
9802;DHT22;4940;50.900;4.672;2023-07-29T00:57:37;20.10;99.90
9802;DHT22;4940;50.900;4.672;2023-07-29T01:00:06;20.10;99.90
9802;DHT22;4940;50.900;4.672;2023-07-29T01:02:34;20.00;99.90
9802;DHT22;4940;50.900;4.672;2023-07-29T01:05:02;16.50;99.90
9802;DHT22;4940;50.900;4.672;2023-07-29T01:07:36;19.90;99.90
9802;DHT22;4940;50.900;4.672;2023-07-29T01:10:16;19.90;99.90
9802;DHT22;4940;50.900;4.672;2023-07-29T01:12:51;19.80;99.90
9802;DHT22;4940;50.900;4.672;2023-07-29T01:15:25;19.80;99.90
9802;DHT22;4940;50.900;4.672;2023-07-29T01:17:56;19.80;99.90
9802;DHT22;4940;50.900;4.672;2023-07-29T01:20:26;19.70;99.90
9802;DHT22;4940;50.900;4.672;2023-07-29T01:22:54;19.70;99.90
9802;DHT22;4940;50.900;4.672;2023-07-29T01:25:23;19.70;99.90
9802;DHT22;4940;50.900;4.672;2023-07-29T01:27:51;19.70;99.90
9802;DHT22;4940;50.900;4.672;2023-07-29T01:30:19;19.60;99.90
9802;DHT22;4940;50.900;4.672;2023-07-29T01:32:53;19.60;99.90
9802;DHT22;4940;50.900;4.672;2023-07-29T01:35:24;19.60;99.90
9802;DHT22;4940;50.900;4.672;2023-07-29T01:37:55;19.60;99.90
9802;DHT22;4940;50.900;4.672;2023-07-29T01:40:26;19.50;99.90
9802;DHT22;4940;50.900;4.672;2023-07-29T01:42:54;19.50;99.90
9802;DHT22;4940;50.900;4.672;2023-07-29T01:45:23;19.50;99.90
9802;DHT22;4940;50.900;4.672;2023-07-29T01:47:51;19.50;99.90
9802;DHT22;4940;50.900;4.672;2023-07-29T01:50:19;19.40;99.90
9802;DHT22;4940;50.900;4.672;2023-07-29T01:52:46;19.40;99.90
9802;DHT22;4940;50.900;4.672;2023-07-29T01:55:14;19.30;99.90
9802;DHT22;4940;50.900;4.672;2023-07-29T01:57:42;19.40;99.90
9802;DHT22;4940;50.900;4.672;2023-07-29T02:00:11;19.30;99.90
9802;DHT22;4940;50.900;4.672;2023-07-29T02:02:39;19.40;99.90
9802;DHT22;4940;50.900;4.672;2023-07-29T02:05:06;19.30;99.90
9802;DHT22;4940;50.900;4.672;2023-07-29T02:07:34;19.30;99.90
9802;DHT22;4940;50.900;4.672;2023-07-29T02:10:01;19.30;99.90
9802;DHT22;4940;50.900;4.672;2023-07-29T02:12:29;19.30;99.90
9802;DHT22;4940;50.900;4.672;2023-07-29T02:14:57;16.70;99.90
9802;DHT22;4940;50.900;4.672;2023-07-29T02:17:25;19.20;99.90
9802;DHT22;4940;50.900;4.672;2023-07-29T02:19:52;19.20;99.90
9802;DHT22;4940;50.900;4.672;2023-07-29T02:22:20;19.00;99.90
9802;DHT22;4940;50.900;4.672;2023-07-29T02:24:47;19.10;99.90
9802;DHT22;4940;50.900;4.672;2023-07-29T02:27:15;19.10;99.90
9802;DHT22;4940;50.900;4.672;2023-07-29T02:29:42;19.10;99.90
9802;DHT22;4940;50.900;4.672;2023-07-29T02:32:11;19.00;99.90
9802;DHT22;4940;50.900;4.672;2023-07-29T02:34:38;19.10;99.90
9802;DHT22;4940;50.900;4.672;2023-07-29T02:37:06;19.10;99.90
9802;DHT22;4940;50.900;4.672;2023-07-29T02:39:33;19.00;99.90
9802;DHT22;4940;50.900;4.672;2023-07-29T02:42:00;19.00;99.90
9802;DHT22;4940;50.900;4.672;2023-07-29T02:44:28;19.00;99.90
9802;DHT22;4940;50.900;4.672;2023-07-29T02:46:55;18.90;99.90
9802;DHT22;4940;50.900;4.672;2023-07-29T02:49:24;18.90;99.90
9802;DHT22;4940;50.900;4.672;2023-07-29T02:51:51;18.90;99.90
9802;DHT22;4940;50.900;4.672;2023-07-29T02:54:18;18.90;99.90
9802;DHT22;4940;50.900;4.672;2023-07-29T02:56:46;18.90;99.90
9802;DHT22;4940;50.900;4.672;2023-07-29T02:59:13;18.90;99.90
9802;DHT22;4940;50.900;4.672;2023-07-29T03:01:40;18.80;99.90
9802;DHT22;4940;50.900;4.672;2023-07-29T03:04:08;18.80;99.90
9802;DHT22;4940;50.900;4.672;2023-07-29T03:06:36;18.80;99.90
9802;DHT22;4940;50.900;4.672;2023-07-29T03:09:04;18.80;99.90
9802;DHT22;4940;50.900;4.672;2023-07-29T03:11:31;18.70;99.90
9802;DHT22;4940;50.900;4.672;2023-07-29T03:13:59;18.60;99.90
9802;DHT22;4940;50.900;4.672;2023-07-29T03:16:26;18.70;99.90
9802;DHT22;4940;50.900;4.672;2023-07-29T03:18:54;18.70;99.90
9802;DHT22;4940;50.900;4.672;2023-07-29T03:21:21;18.60;99.90
9802;DHT22;4940;50.900;4.672;2023-07-29T03:23:50;18.60;99.90
9802;DHT22;4940;50.900;4.672;2023-07-29T03:26:17;18.70;99.90
9802;DHT22;4940;50.900;4.672;2023-07-29T03:28:45;18.60;99.90
9802;DHT22;4940;50.900;4.672;2023-07-29T03:31:12;18.50;99.90
9802;DHT22;4940;50.900;4.672;2023-07-29T03:33:39;18.50;99.90
9802;DHT22;4940;50.900;4.672;2023-07-29T03:36:07;18.50;99.90
9802;DHT22;4940;50.900;4.672;2023-07-29T03:38:34;18.50;99.90
9802;DHT22;4940;50.900;4.672;2023-07-29T03:41:07;18.30;99.90
9802;DHT22;4940;50.900;4.672;2023-07-29T03:43:34;18.40;99.90
9802;DHT22;4940;50.900;4.672;2023-07-29T03:46:02;18.40;99.90
9802;DHT22;4940;50.900;4.672;2023-07-29T03:48:29;18.40;99.90
9802;DHT22;4940;50.900;4.672;2023-07-29T03:50:57;18.30;99.90
9802;DHT22;4940;50.900;4.672;2023-07-29T03:53:24;18.30;99.90
9802;DHT22;4940;50.900;4.672;2023-07-29T03:55:52;18.30;99.90
9802;DHT22;4940;50.900;4.672;2023-07-29T03:58:20;18.30;99.90
9802;DHT22;4940;50.900;4.672;2023-07-29T04:00:47;18.30;99.90
9802;DHT22;4940;50.900;4.672;2023-07-29T04:03:15;18.20;99.90
9802;DHT22;4940;50.900;4.672;2023-07-29T04:05:42;18.20;99.90
9802;DHT22;4940;50.900;4.672;2023-07-29T04:08:10;18.20;99.90
9802;DHT22;4940;50.900;4.672;2023-07-29T04:10:37;18.30;99.90
9802;DHT22;4940;50.900;4.672;2023-07-29T04:13:04;18.20;99.90
9802;DHT22;4940;50.900;4.672;2023-07-29T04:15:33;18.20;99.90
9802;DHT22;4940;50.900;4.672;2023-07-29T04:18:00;18.20;99.90
9802;DHT22;4940;50.900;4.672;2023-07-29T04:20:28;18.20;99.90
9802;DHT22;4940;50.900;4.672;2023-07-29T04:22:55;18.20;99.90
9802;DHT22;4940;50.900;4.672;2023-07-29T04:25:22;18.20;99.90
9802;DHT22;4940;50.900;4.672;2023-07-29T04:27:50;18.20;99.90
9802;DHT22;4940;50.900;4.672;2023-07-29T04:32:46;18.20;99.90
9802;DHT22;4940;50.900;4.672;2023-07-29T04:35:14;18.20;99.90
9802;DHT22;4940;50.900;4.672;2023-07-29T04:37:42;18.20;99.90
9802;DHT22;4940;50.900;4.672;2023-07-29T04:40:10;18.20;99.90
9802;DHT22;4940;50.900;4.672;2023-07-29T04:42:37;18.10;99.90
9802;DHT22;4940;50.900;4.672;2023-07-29T04:45:05;18.10;99.90
9802;DHT22;4940;50.900;4.672;2023-07-29T04:47:32;18.20;99.90
9802;DHT22;4940;50.900;4.672;2023-07-29T04:50:01;18.20;99.90
9802;DHT22;4940;50.900;4.672;2023-07-29T04:52:28;18.20;99.90
9802;DHT22;4940;50.900;4.672;2023-07-29T04:54:56;18.20;99.90
9802;DHT22;4940;50.900;4.672;2023-07-29T04:57:23;18.30;99.90
9802;DHT22;4940;50.900;4.672;2023-07-29T04:59:51;18.30;99.90
9802;DHT22;4940;50.900;4.672;2023-07-29T05:02:18;18.30;99.90
9802;DHT22;4940;50.900;4.672;2023-07-29T05:04:47;18.40;99.90
9802;DHT22;4940;50.900;4.672;2023-07-29T05:07:15;18.40;99.90
9802;DHT22;4940;50.900;4.672;2023-07-29T05:09:42;18.40;99.90
9802;DHT22;4940;50.900;4.672;2023-07-29T05:12:10;18.40;99.90
9802;DHT22;4940;50.900;4.672;2023-07-29T05:14:37;18.40;99.90
9802;DHT22;4940;50.900;4.672;2023-07-29T05:17:05;18.50;99.90
9802;DHT22;4940;50.900;4.672;2023-07-29T05:19:32;18.50;99.90
9802;DHT22;4940;50.900;4.672;2023-07-29T05:21:59;18.60;99.90
9802;DHT22;4940;50.900;4.672;2023-07-29T05:24:28;18.60;99.90
9802;DHT22;4940;50.900;4.672;2023-07-29T05:26:55;18.60;99.90
9802;DHT22;4940;50.900;4.672;2023-07-29T05:29:23;18.70;99.90
9802;DHT22;4940;50.900;4.672;2023-07-29T05:31:50;18.70;99.90
9802;DHT22;4940;50.900;4.672;2023-07-29T05:34:17;18.90;99.90
9802;DHT22;4940;50.900;4.672;2023-07-29T05:36:45;18.90;99.90
9802;DHT22;4940;50.900;4.672;2023-07-29T05:39:12;19.00;99.90
9802;DHT22;4940;50.900;4.672;2023-07-29T05:41:40;19.00;99.90
9802;DHT22;4940;50.900;4.672;2023-07-29T05:44:08;19.10;99.90
9802;DHT22;4940;50.900;4.672;2023-07-29T05:46:35;19.20;99.90
9802;DHT22;4940;50.900;4.672;2023-07-29T05:49:03;19.00;99.90
9802;DHT22;4940;50.900;4.672;2023-07-29T05:51:30;19.10;99.90
9802;DHT22;4940;50.900;4.672;2023-07-29T05:53:57;19.30;99.90
9802;DHT22;4940;50.900;4.672;2023-07-29T05:56:25;19.60;99.90
9802;DHT22;4940;50.900;4.672;2023-07-29T05:58:53;19.70;99.90
9802;DHT22;4940;50.900;4.672;2023-07-29T06:03:48;20.10;99.90
9802;DHT22;4940;50.900;4.672;2023-07-29T06:06:15;20.20;99.90
9802;DHT22;4940;50.900;4.672;2023-07-29T06:08:43;20.10;99.90
9802;DHT22;4940;50.900;4.672;2023-07-29T06:11:10;20.20;99.90
9802;DHT22;4940;50.900;4.672;2023-07-29T06:13:38;20.10;99.90
9802;DHT22;4940;50.900;4.672;2023-07-29T06:16:06;20.10;99.90
9802;DHT22;4940;50.900;4.672;2023-07-29T06:18:34;20.00;99.90
9802;DHT22;4940;50.900;4.672;2023-07-29T06:21:01;20.00;99.90
9802;DHT22;4940;50.900;4.672;2023-07-29T06:23:33;20.00;99.90
9802;DHT22;4940;50.900;4.672;2023-07-29T06:26:01;19.80;99.90
9802;DHT22;4940;50.900;4.672;2023-07-29T06:28:28;19.90;99.90
9802;DHT22;4940;50.900;4.672;2023-07-29T06:30:55;19.90;99.90
9802;DHT22;4940;50.900;4.672;2023-07-29T06:33:24;20.00;99.90
9802;DHT22;4940;50.900;4.672;2023-07-29T06:35:51;20.20;99.90
9802;DHT22;4940;50.900;4.672;2023-07-29T06:38:18;20.20;99.90
9802;DHT22;4940;50.900;4.672;2023-07-29T06:40:47;20.90;99.90
9802;DHT22;4940;50.900;4.672;2023-07-29T06:43:15;20.90;99.90
9802;DHT22;4940;50.900;4.672;2023-07-29T06:45:42;22.00;99.90
9802;DHT22;4940;50.900;4.672;2023-07-29T06:48:10;22.30;99.90
9802;DHT22;4940;50.900;4.672;2023-07-29T06:50:38;22.40;99.90
9802;DHT22;4940;50.900;4.672;2023-07-29T06:53:05;22.50;99.90
9802;DHT22;4940;50.900;4.672;2023-07-29T06:55:33;22.50;99.90
9802;DHT22;4940;50.900;4.672;2023-07-29T06:58:00;22.50;99.90
9802;DHT22;4940;50.900;4.672;2023-07-29T07:00:28;22.50;99.90
9802;DHT22;4940;50.900;4.672;2023-07-29T07:02:55;22.80;99.90
9802;DHT22;4940;50.900;4.672;2023-07-29T07:05:22;23.00;99.90
9802;DHT22;4940;50.900;4.672;2023-07-29T07:07:51;23.10;99.90
9802;DHT22;4940;50.900;4.672;2023-07-29T07:10:18;23.30;99.90
9802;DHT22;4940;50.900;4.672;2023-07-29T07:12:46;23.50;99.90
9802;DHT22;4940;50.900;4.672;2023-07-29T07:15:13;23.60;99.90
9802;DHT22;4940;50.900;4.672;2023-07-29T07:17:40;23.70;99.90
9802;DHT22;4940;50.900;4.672;2023-07-29T07:20:08;23.70;99.90
9802;DHT22;4940;50.900;4.672;2023-07-29T07:22:36;23.70;99.90
9802;DHT22;4940;50.900;4.672;2023-07-29T07:25:05;23.50;99.90
9802;DHT22;4940;50.900;4.672;2023-07-29T07:27:32;23.50;99.90
9802;DHT22;4940;50.900;4.672;2023-07-29T07:30:00;23.20;99.90
9802;DHT22;4940;50.900;4.672;2023-07-29T07:32:27;23.20;99.90
9802;DHT22;4940;50.900;4.672;2023-07-29T07:34:55;23.10;99.90
9802;DHT22;4940;50.900;4.672;2023-07-29T07:37:22;22.90;99.90
9802;DHT22;4940;50.900;4.672;2023-07-29T07:39:49;22.90;99.90
9802;DHT22;4940;50.900;4.672;2023-07-29T07:42:18;22.80;99.90
9802;DHT22;4940;50.900;4.672;2023-07-29T07:44:45;22.80;99.90
9802;DHT22;4940;50.900;4.672;2023-07-29T07:47:13;22.70;99.90
9802;DHT22;4940;50.900;4.672;2023-07-29T07:49:40;22.60;99.90
9802;DHT22;4940;50.900;4.672;2023-07-29T07:52:07;22.60;99.90
9802;DHT22;4940;50.900;4.672;2023-07-29T07:54:35;22.60;99.90
9802;DHT22;4940;50.900;4.672;2023-07-29T07:57:02;22.50;99.90
9802;DHT22;4940;50.900;4.672;2023-07-29T07:59:31;22.70;99.90
9802;DHT22;4940;50.900;4.672;2023-07-29T08:01:58;23.60;99.90
9802;DHT22;4940;50.900;4.672;2023-07-29T08:04:25;22.70;99.90
9802;DHT22;4940;50.900;4.672;2023-07-29T08:06:52;23.00;99.90
9802;DHT22;4940;50.900;4.672;2023-07-29T08:09:20;23.20;99.90
9802;DHT22;4940;50.900;4.672;2023-07-29T08:11:47;23.40;99.90
9802;DHT22;4940;50.900;4.672;2023-07-29T08:14:15;23.40;99.90
9802;DHT22;4940;50.900;4.672;2023-07-29T08:16:43;23.60;99.90
9802;DHT22;4940;50.900;4.672;2023-07-29T08:19:10;23.70;99.90
9802;DHT22;4940;50.900;4.672;2023-07-29T08:21:38;23.80;99.90
9802;DHT22;4940;50.900;4.672;2023-07-29T08:24:05;23.90;99.90
9802;DHT22;4940;50.900;4.672;2023-07-29T08:26:33;24.20;99.90
9802;DHT22;4940;50.900;4.672;2023-07-29T08:29:00;24.30;99.90
9802;DHT22;4940;50.900;4.672;2023-07-29T08:31:28;24.30;99.90
9802;DHT22;4940;50.900;4.672;2023-07-29T08:33:58;24.80;99.90
9802;DHT22;4940;50.900;4.672;2023-07-29T08:36:25;25.10;99.90
9802;DHT22;4940;50.900;4.672;2023-07-29T08:38:52;25.30;99.90
9802;DHT22;4940;50.900;4.672;2023-07-29T08:41:25;25.50;99.90
9802;DHT22;4940;50.900;4.672;2023-07-29T08:43:59;25.70;99.90
9802;DHT22;4940;50.900;4.672;2023-07-29T08:46:28;26.00;99.90
9802;DHT22;4940;50.900;4.672;2023-07-29T08:48:58;25.80;99.90
9802;DHT22;4940;50.900;4.672;2023-07-29T08:51:27;26.10;99.90
9802;DHT22;4940;50.900;4.672;2023-07-29T08:53:56;26.40;99.90
9802;DHT22;4940;50.900;4.672;2023-07-29T08:56:24;26.60;99.90
9802;DHT22;4940;50.900;4.672;2023-07-29T08:58:52;26.70;99.90
9802;DHT22;4940;50.900;4.672;2023-07-29T09:03:47;27.10;99.90
9802;DHT22;4940;50.900;4.672;2023-07-29T09:06:16;27.10;99.90
9802;DHT22;4940;50.900;4.672;2023-07-29T09:08:44;27.20;99.90
9802;DHT22;4940;50.900;4.672;2023-07-29T09:11:13;27.30;99.90
9802;DHT22;4940;50.900;4.672;2023-07-29T09:13:42;27.70;99.90
9802;DHT22;4940;50.900;4.672;2023-07-29T09:16:10;26.00;99.90
9802;DHT22;4940;50.900;4.672;2023-07-29T09:18:37;28.50;99.90
9802;DHT22;4940;50.900;4.672;2023-07-29T09:21:05;28.90;99.90
9802;DHT22;4940;50.900;4.672;2023-07-29T09:23:40;29.30;99.90
9802;DHT22;4940;50.900;4.672;2023-07-29T09:28:37;29.70;99.90
9802;DHT22;4940;50.900;4.672;2023-07-29T09:31:05;29.80;99.90
9802;DHT22;4940;50.900;4.672;2023-07-29T09:33:34;29.80;99.90
9802;DHT22;4940;50.900;4.672;2023-07-29T09:36:08;29.40;99.90
9802;DHT22;4940;50.900;4.672;2023-07-29T09:38:35;29.30;99.90
9802;DHT22;4940;50.900;4.672;2023-07-29T09:41:04;29.00;99.90
9802;DHT22;4940;50.900;4.672;2023-07-29T09:43:32;29.00;99.90
9802;DHT22;4940;50.900;4.672;2023-07-29T09:46:00;28.70;99.90
9802;DHT22;4940;50.900;4.672;2023-07-29T09:48:32;28.70;99.90
9802;DHT22;4940;50.900;4.672;2023-07-29T09:51:01;28.60;99.90
9802;DHT22;4940;50.900;4.672;2023-07-29T09:53:40;28.80;99.90
9802;DHT22;4940;50.900;4.672;2023-07-29T09:56:09;28.40;99.90
9802;DHT22;4940;50.900;4.672;2023-07-29T09:58:36;28.30;99.90
9802;DHT22;4940;50.900;4.672;2023-07-29T10:01:04;28.20;99.90
9802;DHT22;4940;50.900;4.672;2023-07-29T10:03:32;28.00;99.90
9802;DHT22;4940;50.900;4.672;2023-07-29T10:06:01;27.90;99.90
9802;DHT22;4940;50.900;4.672;2023-07-29T10:08:29;27.90;99.90
9802;DHT22;4940;50.900;4.672;2023-07-29T10:10:59;27.70;99.90
9802;DHT22;4940;50.900;4.672;2023-07-29T10:13:28;27.70;99.90
9802;DHT22;4940;50.900;4.672;2023-07-29T10:15:56;27.60;99.90
9802;DHT22;4940;50.900;4.672;2023-07-29T10:18:23;27.90;99.90
9802;DHT22;4940;50.900;4.672;2023-07-29T10:20:51;28.00;99.90
9802;DHT22;4940;50.900;4.672;2023-07-29T10:23:22;28.10;99.90
9802;DHT22;4940;50.900;4.672;2023-07-29T10:25:53;28.40;99.90
9802;DHT22;4940;50.900;4.672;2023-07-29T10:28:25;27.50;99.90
9802;DHT22;4940;50.900;4.672;2023-07-29T10:30:54;29.60;99.90
9802;DHT22;4940;50.900;4.672;2023-07-29T10:33:23;28.60;99.90
9802;DHT22;4940;50.900;4.672;2023-07-29T10:35:52;28.60;99.90
9802;DHT22;4940;50.900;4.672;2023-07-29T10:38:20;28.50;99.90
9802;DHT22;4940;50.900;4.672;2023-07-29T10:40:50;28.40;99.90
9802;DHT22;4940;50.900;4.672;2023-07-29T10:43:20;28.10;99.90
9802;DHT22;4940;50.900;4.672;2023-07-29T10:48:40;27.50;99.90
9802;DHT22;4940;50.900;4.672;2023-07-29T10:51:28;26.90;99.90
9802;DHT22;4940;50.900;4.672;2023-07-29T10:53:57;26.40;99.90
9802;DHT22;4940;50.900;4.672;2023-07-29T10:56:26;26.10;99.90
9802;DHT22;4940;50.900;4.672;2023-07-29T10:58:55;25.80;99.90
9802;DHT22;4940;50.900;4.672;2023-07-29T11:01:28;25.50;99.90
9802;DHT22;4940;50.900;4.672;2023-07-29T11:04:27;25.30;99.90
9802;DHT22;4940;50.900;4.672;2023-07-29T11:07:24;24.30;99.90
9802;DHT22;4940;50.900;4.672;2023-07-29T11:09:59;25.00;99.90
9802;DHT22;4940;50.900;4.672;2023-07-29T11:12:37;25.00;99.90
9802;DHT22;4940;50.900;4.672;2023-07-29T11:15:12;25.00;99.90
9802;DHT22;4940;50.900;4.672;2023-07-29T11:17:41;25.10;99.90
9802;DHT22;4940;50.900;4.672;2023-07-29T11:20:11;25.10;99.90
9802;DHT22;4940;50.900;4.672;2023-07-29T11:22:39;25.20;99.90
9802;DHT22;4940;50.900;4.672;2023-07-29T11:25:08;25.30;99.90
9802;DHT22;4940;50.900;4.672;2023-07-29T11:30:08;25.50;99.90
9802;DHT22;4940;50.900;4.672;2023-07-29T11:32:37;25.60;99.90
9802;DHT22;4940;50.900;4.672;2023-07-29T11:35:06;21.80;99.90
9802;DHT22;4940;50.900;4.672;2023-07-29T11:37:36;25.70;99.90
9802;DHT22;4940;50.900;4.672;2023-07-29T11:42:38;25.90;99.90
9802;DHT22;4940;50.900;4.672;2023-07-29T11:45:09;26.00;99.90
9802;DHT22;4940;50.900;4.672;2023-07-29T11:47:37;26.10;99.90
9802;DHT22;4940;50.900;4.672;2023-07-29T11:50:05;26.20;99.90
9802;DHT22;4940;50.900;4.672;2023-07-29T11:52:38;26.30;99.90
9802;DHT22;4940;50.900;4.672;2023-07-29T11:55:07;26.50;99.90
9802;DHT22;4940;50.900;4.672;2023-07-29T11:57:39;26.50;99.90
9802;DHT22;4940;50.900;4.672;2023-07-29T12:00:08;26.50;99.90
9802;DHT22;4940;50.900;4.672;2023-07-29T12:02:37;27.30;99.90
9802;DHT22;4940;50.900;4.672;2023-07-29T12:05:05;26.80;99.90
9802;DHT22;4940;50.900;4.672;2023-07-29T12:07:33;26.90;99.90
9802;DHT22;4940;50.900;4.672;2023-07-29T12:10:08;27.10;99.90
9802;DHT22;4940;50.900;4.672;2023-07-29T12:12:44;27.30;99.90
9802;DHT22;4940;50.900;4.672;2023-07-29T12:15:12;27.40;99.90
9802;DHT22;4940;50.900;4.672;2023-07-29T12:17:40;27.50;99.90
9802;DHT22;4940;50.900;4.672;2023-07-29T12:20:09;25.90;99.90
9802;DHT22;4940;50.900;4.672;2023-07-29T12:22:37;27.90;99.90
9802;DHT22;4940;50.900;4.672;2023-07-29T12:25:08;27.70;99.90
9802;DHT22;4940;50.900;4.672;2023-07-29T12:30:10;27.60;99.90
9802;DHT22;4940;50.900;4.672;2023-07-29T12:32:43;27.50;99.90
9802;DHT22;4940;50.900;4.672;2023-07-29T12:35:15;27.30;99.90
9802;DHT22;4940;50.900;4.672;2023-07-29T12:37:45;27.00;99.90
9802;DHT22;4940;50.900;4.672;2023-07-29T12:40:24;26.70;99.90
9802;DHT22;4940;50.900;4.672;2023-07-29T12:42:53;26.40;99.90
9802;DHT22;4940;50.900;4.672;2023-07-29T12:45:20;26.10;99.90
9802;DHT22;4940;50.900;4.672;2023-07-29T12:47:48;25.80;99.90
9802;DHT22;4940;50.900;4.672;2023-07-29T12:50:16;25.50;99.90
9802;DHT22;4940;50.900;4.672;2023-07-29T12:52:44;25.20;99.90
9802;DHT22;4940;50.900;4.672;2023-07-29T12:55:11;25.00;99.90
9802;DHT22;4940;50.900;4.672;2023-07-29T12:57:43;24.70;99.90
9802;DHT22;4940;50.900;4.672;2023-07-29T13:00:11;24.60;99.90
9802;DHT22;4940;50.900;4.672;2023-07-29T13:02:41;24.50;99.90
9802;DHT22;4940;50.900;4.672;2023-07-29T13:05:10;24.50;99.90
9802;DHT22;4940;50.900;4.672;2023-07-29T13:07:38;24.60;99.90
9802;DHT22;4940;50.900;4.672;2023-07-29T13:15:07;24.70;99.90
9802;DHT22;4940;50.900;4.672;2023-07-29T13:20:04;24.80;99.90
9802;DHT22;4940;50.900;4.672;2023-07-29T13:27:27;25.30;99.90
9802;DHT22;4940;50.900;4.672;2023-07-29T13:29:54;25.20;99.90
9802;DHT22;4940;50.900;4.672;2023-07-29T13:32:23;25.30;99.90
9802;DHT22;4940;50.900;4.672;2023-07-29T13:34:50;25.30;99.90
9802;DHT22;4940;50.900;4.672;2023-07-29T13:37:18;25.30;99.90
9802;DHT22;4940;50.900;4.672;2023-07-29T13:39:45;25.30;99.90
9802;DHT22;4940;50.900;4.672;2023-07-29T13:42:12;25.30;99.90
9802;DHT22;4940;50.900;4.672;2023-07-29T13:44:40;25.30;99.90
9802;DHT22;4940;50.900;4.672;2023-07-29T13:47:07;25.30;99.90
9802;DHT22;4940;50.900;4.672;2023-07-29T13:49:36;25.60;99.90
9802;DHT22;4940;50.900;4.672;2023-07-29T13:52:03;25.40;99.90
9802;DHT22;4940;50.900;4.672;2023-07-29T13:54:30;25.40;99.90
9802;DHT22;4940;50.900;4.672;2023-07-29T13:56:58;25.40;99.90
9802;DHT22;4940;50.900;4.672;2023-07-29T13:59:26;25.50;99.90
9802;DHT22;4940;50.900;4.672;2023-07-29T14:01:53;25.60;99.90
9802;DHT22;4940;50.900;4.672;2023-07-29T14:04:20;28.10;99.90
9802;DHT22;4940;50.900;4.672;2023-07-29T14:06:49;25.80;99.90
9802;DHT22;4940;50.900;4.672;2023-07-29T14:09:16;25.80;99.90
9802;DHT22;4940;50.900;4.672;2023-07-29T14:11:43;25.80;99.90
9802;DHT22;4940;50.900;4.672;2023-07-29T14:14:11;26.70;99.90
9802;DHT22;4940;50.900;4.672;2023-07-29T14:16:38;25.80;99.90
9802;DHT22;4940;50.900;4.672;2023-07-29T14:19:06;25.90;99.90
9802;DHT22;4940;50.900;4.672;2023-07-29T14:21:33;25.90;99.90
9802;DHT22;4940;50.900;4.672;2023-07-29T14:24:02;26.00;99.90
9802;DHT22;4940;50.900;4.672;2023-07-29T14:26:29;25.90;99.90
9802;DHT22;4940;50.900;4.672;2023-07-29T14:31:24;25.80;99.90
9802;DHT22;4940;50.900;4.672;2023-07-29T14:33:51;26.00;99.90
9802;DHT22;4940;50.900;4.672;2023-07-29T14:38:46;26.10;99.90
9802;DHT22;4940;50.900;4.672;2023-07-29T14:41:14;26.10;99.90
9802;DHT22;4940;50.900;4.672;2023-07-29T14:43:42;26.20;99.90
9802;DHT22;4940;50.900;4.672;2023-07-29T14:46:09;26.20;99.90
9802;DHT22;4940;50.900;4.672;2023-07-29T14:48:36;25.90;99.90
9802;DHT22;4940;50.900;4.672;2023-07-29T14:51:04;26.30;99.90
9802;DHT22;4940;50.900;4.672;2023-07-29T14:53:31;26.20;99.90
9802;DHT22;4940;50.900;4.672;2023-07-29T14:55:59;26.20;99.90
9802;DHT22;4940;50.900;4.672;2023-07-29T14:58:27;26.40;99.90
9802;DHT22;4940;50.900;4.672;2023-07-29T15:00:55;26.10;99.90
9802;DHT22;4940;50.900;4.672;2023-07-29T15:03:22;26.10;99.90
9802;DHT22;4940;50.900;4.672;2023-07-29T15:08:17;26.20;99.90
9802;DHT22;4940;50.900;4.672;2023-07-29T15:10:45;26.30;99.90
9802;DHT22;4940;50.900;4.672;2023-07-29T15:13:13;26.20;99.90
9802;DHT22;4940;50.900;4.672;2023-07-29T15:15:42;26.20;99.90
9802;DHT22;4940;50.900;4.672;2023-07-29T15:18:09;26.10;99.90
9802;DHT22;4940;50.900;4.672;2023-07-29T15:25:31;26.20;99.90
9802;DHT22;4940;50.900;4.672;2023-07-29T15:30:26;28.00;99.90
9802;DHT22;4940;50.900;4.672;2023-07-29T15:32:55;26.10;99.90
9802;DHT22;4940;50.900;4.672;2023-07-29T15:37:50;26.80;99.90
9802;DHT22;4940;50.900;4.672;2023-07-29T15:40:17;26.20;99.90
9802;DHT22;4940;50.900;4.672;2023-07-29T15:42:45;28.80;99.90
9802;DHT22;4940;50.900;4.672;2023-07-29T15:47:40;24.50;99.90
9802;DHT22;4940;50.900;4.672;2023-07-29T15:50:09;26.10;99.90
9802;DHT22;4940;50.900;4.672;2023-07-29T15:52:36;26.00;99.90
9802;DHT22;4940;50.900;4.672;2023-07-29T15:55:08;26.00;99.90
9802;DHT22;4940;50.900;4.672;2023-07-29T15:57:35;26.00;99.90
9802;DHT22;4940;50.900;4.672;2023-07-29T16:00:03;24.70;99.90
9802;DHT22;4940;50.900;4.672;2023-07-29T16:02:31;25.80;99.90
9802;DHT22;4940;50.900;4.672;2023-07-29T16:04:58;25.40;99.90
9802;DHT22;4940;50.900;4.672;2023-07-29T16:07:28;25.70;99.90
9802;DHT22;4940;50.900;4.672;2023-07-29T16:09:55;25.50;99.90
9802;DHT22;4940;50.900;4.672;2023-07-29T16:12:22;25.50;99.90
9802;DHT22;4940;50.900;4.672;2023-07-29T16:14:50;25.50;99.90
9802;DHT22;4940;50.900;4.672;2023-07-29T16:17:17;26.00;99.90
9802;DHT22;4940;50.900;4.672;2023-07-29T16:19:54;25.40;99.90
9802;DHT22;4940;50.900;4.672;2023-07-29T16:22:22;25.30;99.90
9802;DHT22;4940;50.900;4.672;2023-07-29T16:24:51;25.20;99.90
9802;DHT22;4940;50.900;4.672;2023-07-29T16:27:18;25.10;99.90
9802;DHT22;4940;50.900;4.672;2023-07-29T16:29:46;25.00;99.90
9802;DHT22;4940;50.900;4.672;2023-07-29T16:32:14;24.90;99.90
9802;DHT22;4940;50.900;4.672;2023-07-29T16:34:41;24.90;99.90
9802;DHT22;4940;50.900;4.672;2023-07-29T16:37:09;24.90;99.90
9802;DHT22;4940;50.900;4.672;2023-07-29T16:39:36;24.90;99.90
9802;DHT22;4940;50.900;4.672;2023-07-29T16:42:05;24.80;99.90
9802;DHT22;4940;50.900;4.672;2023-07-29T16:44:32;24.40;99.90
9802;DHT22;4940;50.900;4.672;2023-07-29T16:47:00;24.60;99.90
9802;DHT22;4940;50.900;4.672;2023-07-29T16:49:28;24.50;99.90
9802;DHT22;4940;50.900;4.672;2023-07-29T16:51:55;24.60;99.90
9802;DHT22;4940;50.900;4.672;2023-07-29T16:54:22;24.60;99.90
9802;DHT22;4940;50.900;4.672;2023-07-29T16:56:50;24.60;99.90
9802;DHT22;4940;50.900;4.672;2023-07-29T16:59:19;24.60;99.90
9802;DHT22;4940;50.900;4.672;2023-07-29T17:01:47;24.70;99.90